createdAt,value
2017-10-26T00:00:46.518Z,93.41
2017-10-26T00:01:46.443Z,93.60
2017-10-26T00:02:48.495Z,93.41
2017-10-26T00:03:46.784Z,93.79
2017-10-26T00:04:46.218Z,93.41
2017-10-26T00:05:47.130Z,94.51
2017-10-26T00:06:46.626Z,93.84
2017-10-26T00:07:46.093Z,94.13
2017-10-26T00:08:46.626Z,94.41
2017-10-26T00:09:46.215Z,94.98
2017-10-26T00:10:45.910Z,94.51
2017-10-26T00:11:46.020Z,94.22
2017-10-26T00:12:48.458Z,94.13
2017-10-26T00:13:48.290Z,93.46
2017-10-26T00:14:45.731Z,93.27
2017-10-26T00:15:45.446Z,93.27
2017-10-26T00:16:45.356Z,93.37
2017-10-26T00:17:45.752Z,93.55
2017-10-26T00:18:45.140Z,93.37
2017-10-26T00:19:45.158Z,93.17
2017-10-26T00:20:45.269Z,93.84
2017-10-26T00:21:45.067Z,93.93
2017-10-26T00:22:44.970Z,94.32
2017-10-26T00:23:44.788Z,94.32
2017-10-26T00:24:44.819Z,94.13
2017-10-26T00:25:44.578Z,93.93
2017-10-26T00:26:44.593Z,94.13
2017-10-26T00:27:47.300Z,94.03
2017-10-26T00:28:45.523Z,93.74
2017-10-26T00:29:44.297Z,94.13
2017-10-26T00:30:44.714Z,93.55
2017-10-26T00:31:44.102Z,93.46
2017-10-26T00:32:45.793Z,93.27
2017-10-26T00:33:43.939Z,93.46
2017-10-26T00:34:44.340Z,93.55
2017-10-26T00:35:44.005Z,93.37
2017-10-26T00:36:43.726Z,94.03
2017-10-26T00:37:43.666Z,94.03
2017-10-26T00:38:43.828Z,93.27
2017-10-26T00:39:43.548Z,93.37
2017-10-26T00:40:43.664Z,93.37
2017-10-26T00:41:43.772Z,93.37
2017-10-26T00:42:43.518Z,92.98
2017-10-26T00:43:45.806Z,94.03
2017-10-26T00:44:43.309Z,93.74
2017-10-26T00:45:43.586Z,94.03
2017-10-26T00:46:42.930Z,94.03
2017-10-26T00:47:42.858Z,93.17
2017-10-26T00:48:42.788Z,93.55
2017-10-26T00:49:43.712Z,92.89
2017-10-26T00:50:42.815Z,93.17
2017-10-26T00:51:44.298Z,93.27
2017-10-26T00:52:42.521Z,93.46
2017-10-26T00:53:44.433Z,93.65
2017-10-26T00:54:45.090Z,94.03
2017-10-26T00:55:42.220Z,93.46
2017-10-26T00:56:42.139Z,93.46
2017-10-26T00:57:42.132Z,93.27
2017-10-26T00:58:42.147Z,93.55
2017-10-26T00:59:41.932Z,93.55
2017-10-26T01:00:41.826Z,93.37
2017-10-26T01:01:41.802Z,93.46
2017-10-26T01:02:41.687Z,94.03
2017-10-26T01:03:41.668Z,93.84
2017-10-26T01:04:41.550Z,93.74
2017-10-26T01:05:41.473Z,93.65
2017-10-26T01:06:41.482Z,93.93
2017-10-26T01:07:41.281Z,93.27
2017-10-26T01:08:43.854Z,93.37
2017-10-26T01:09:42.805Z,94.03
2017-10-26T01:10:41.205Z,93.32
2017-10-26T01:11:41.007Z,93.37
2017-10-26T01:12:40.904Z,92.94
2017-10-26T01:13:40.812Z,93.32
2017-10-26T01:14:41.268Z,93.13
2017-10-26T01:15:42.325Z,93.60
2017-10-26T01:16:40.663Z,93.03
2017-10-26T01:17:40.533Z,93.51
2017-10-26T01:18:40.431Z,93.32
2017-10-26T01:19:40.437Z,93.32
2017-10-26T01:20:41.866Z,93.03
2017-10-26T01:21:40.392Z,93.70
2017-10-26T01:22:40.154Z,94.08
2017-10-26T01:23:40.032Z,93.89
2017-10-26T01:24:40.181Z,93.89
2017-10-26T01:25:39.968Z,93.98
2017-10-26T01:26:40.243Z,93.70
2017-10-26T01:27:39.778Z,94.08
2017-10-26T01:28:39.762Z,94.74
2017-10-26T01:29:39.546Z,93.89
2017-10-26T01:30:39.506Z,93.03
2017-10-26T01:31:39.392Z,93.70
2017-10-26T01:32:39.325Z,93.98
2017-10-26T01:33:39.232Z,93.98
2017-10-26T01:34:39.169Z,94.17
2017-10-26T01:35:39.124Z,94.46
2017-10-26T01:36:39.146Z,94.17
2017-10-26T01:37:39.065Z,94.56
2017-10-26T01:38:38.888Z,94.74
2017-10-26T01:39:38.834Z,95.89
2017-10-26T01:40:38.739Z,95.70
2017-10-26T01:41:38.609Z,95.89
2017-10-26T01:42:38.667Z,95.41
2017-10-26T01:43:38.452Z,96.75
2017-10-26T01:44:38.366Z,95.60
2017-10-26T01:45:38.369Z,95.41
2017-10-26T01:46:38.269Z,94.17
2017-10-26T01:47:38.174Z,94.74
2017-10-26T01:48:38.191Z,93.79
2017-10-26T01:49:37.989Z,94.46
2017-10-26T01:50:37.952Z,94.27
2017-10-26T01:51:37.815Z,94.27
2017-10-26T01:52:37.737Z,94.93
2017-10-26T01:53:37.656Z,94.84
2017-10-26T01:54:37.581Z,94.84
2017-10-26T01:55:37.500Z,94.65
2017-10-26T01:56:37.422Z,95.41
2017-10-26T01:57:37.344Z,95.22
2017-10-26T01:58:38.805Z,96.27
2017-10-26T01:59:38.817Z,96.17
2017-10-26T02:00:37.106Z,95.79
2017-10-26T02:01:37.027Z,96.17
2017-10-26T02:02:36.961Z,95.89
2017-10-26T02:03:36.871Z,96.75
2017-10-26T02:04:36.799Z,96.65
2017-10-26T02:05:36.715Z,96.65
2017-10-26T02:06:36.635Z,95.79
2017-10-26T02:07:36.555Z,96.94
2017-10-26T02:08:36.475Z,97.13
2017-10-26T02:09:36.405Z,96.89
2017-10-26T02:10:36.321Z,97.41
2017-10-26T02:11:36.244Z,96.89
2017-10-26T02:12:36.179Z,96.89
2017-10-26T02:13:36.082Z,97.27
2017-10-26T02:14:36.003Z,96.51
2017-10-26T02:15:35.924Z,96.51
2017-10-26T02:16:35.845Z,96.51
2017-10-26T02:17:35.768Z,96.41
2017-10-26T02:18:35.687Z,96.22
2017-10-26T02:19:35.609Z,96.41
2017-10-26T02:20:35.529Z,95.89
2017-10-26T02:21:35.451Z,96.70
2017-10-26T02:22:35.372Z,96.65
2017-10-26T02:23:35.293Z,96.60
2017-10-26T02:24:35.213Z,96.51
2017-10-26T02:25:35.135Z,96.75
2017-10-26T02:26:35.055Z,96.60
2017-10-26T02:27:34.978Z,97.84
2017-10-26T02:28:34.901Z,97.46
2017-10-26T02:29:34.818Z,97.17
2017-10-26T02:30:34.741Z,97.17
2017-10-26T02:31:34.671Z,97.08
2017-10-26T02:32:34.585Z,96.70
2017-10-26T02:33:34.503Z,97.46
2017-10-26T02:34:34.425Z,97.17
2017-10-26T02:35:34.346Z,97.27
2017-10-26T02:36:34.266Z,96.31
2017-10-26T02:37:34.187Z,96.60
2017-10-26T02:38:34.109Z,96.89
2017-10-26T02:39:34.040Z,96.60
2017-10-26T02:40:33.950Z,96.94
2017-10-26T02:41:33.872Z,96.84
2017-10-26T02:42:33.796Z,96.36
2017-10-26T02:43:33.723Z,96.46
2017-10-26T02:44:33.635Z,96.60
2017-10-26T02:45:33.561Z,96.55
2017-10-26T02:46:33.486Z,96.75
2017-10-26T02:47:33.398Z,96.55
2017-10-26T02:48:33.321Z,95.89
2017-10-26T02:49:33.244Z,96.75
2017-10-26T02:50:33.162Z,96.17
2017-10-26T02:51:33.084Z,96.65
2017-10-26T02:52:33.004Z,96.55
2017-10-26T02:53:32.925Z,96.75
2017-10-26T02:54:32.847Z,96.46
2017-10-26T02:55:32.772Z,96.75
2017-10-26T02:56:32.690Z,96.36
2017-10-26T02:57:32.612Z,96.65
2017-10-26T02:58:32.534Z,95.98
2017-10-26T02:59:32.454Z,97.41
2017-10-26T03:00:32.377Z,96.55
2017-10-26T03:01:32.294Z,96.27
2017-10-26T03:02:32.216Z,96.65
2017-10-26T03:03:32.138Z,96.55
2017-10-26T03:04:32.152Z,96.84
2017-10-26T03:05:31.981Z,96.17
2017-10-26T03:06:31.901Z,95.70
2017-10-26T03:07:31.825Z,96.17
2017-10-26T03:08:31.743Z,96.36
2017-10-26T03:09:31.665Z,96.65
2017-10-26T03:10:31.587Z,96.75
2017-10-26T03:11:31.511Z,96.84
2017-10-26T03:12:31.428Z,96.36
2017-10-26T03:13:31.352Z,96.84
2017-10-26T03:14:31.273Z,96.55
2017-10-26T03:15:31.194Z,96.75
2017-10-26T03:16:31.115Z,96.65
2017-10-26T03:17:31.042Z,96.17
2017-10-26T03:18:30.959Z,95.70
2017-10-26T03:19:30.879Z,96.27
2017-10-26T03:20:30.800Z,96.17
2017-10-26T03:21:30.733Z,96.46
2017-10-26T03:22:30.644Z,96.55
2017-10-26T03:23:30.572Z,95.98
2017-10-26T03:24:30.487Z,96.65
2017-10-26T03:25:30.409Z,96.36
2017-10-26T03:26:30.386Z,96.55
2017-10-26T03:27:30.249Z,96.94
2017-10-26T03:28:30.183Z,96.84
2017-10-26T03:29:30.091Z,96.75
2017-10-26T03:30:30.053Z,96.46
2017-10-26T03:31:29.936Z,96.17
2017-10-26T03:32:29.856Z,96.17
2017-10-26T03:33:29.778Z,95.98
2017-10-26T03:34:29.699Z,96.08
2017-10-26T03:35:29.621Z,96.36
2017-10-26T03:36:29.554Z,95.98
2017-10-26T03:37:29.463Z,95.89
2017-10-26T03:38:29.440Z,96.08
2017-10-26T03:39:29.306Z,95.98
2017-10-26T03:40:29.303Z,95.89
2017-10-26T03:41:29.490Z,95.79
2017-10-26T03:42:29.070Z,95.98
2017-10-26T03:43:29.001Z,95.60
2017-10-26T03:44:28.917Z,96.27
2017-10-26T03:45:28.833Z,96.55
2017-10-26T03:46:28.755Z,95.41
2017-10-26T03:47:28.675Z,95.89
2017-10-26T03:48:28.629Z,96.08
2017-10-26T03:49:28.519Z,95.70
2017-10-26T03:50:28.446Z,95.98
2017-10-26T03:51:28.363Z,95.98
2017-10-26T03:52:28.281Z,95.89
2017-10-26T03:53:28.206Z,95.89
2017-10-26T03:54:28.125Z,95.60
2017-10-26T03:55:28.048Z,95.41
2017-10-26T03:56:28.042Z,95.03
2017-10-26T03:57:27.890Z,95.51
2017-10-26T03:58:27.811Z,95.70
2017-10-26T03:59:27.733Z,95.70
2017-10-26T04:00:27.652Z,96.17
2017-10-26T04:01:27.583Z,96.17
2017-10-26T04:02:27.496Z,96.08
2017-10-26T04:03:27.419Z,96.17
2017-10-26T04:04:27.338Z,96.75
2017-10-26T04:05:27.259Z,95.89
2017-10-26T04:06:27.180Z,96.75
2017-10-26T04:07:27.103Z,96.17
2017-10-26T04:08:27.026Z,95.89
2017-10-26T04:09:26.946Z,95.79
2017-10-26T04:10:26.866Z,96.08
2017-10-26T04:11:26.789Z,95.60
2017-10-26T04:12:26.709Z,95.89
2017-10-26T04:13:26.629Z,96.08
2017-10-26T04:14:26.553Z,96.65
2017-10-26T04:15:26.476Z,96.08
2017-10-26T04:16:26.393Z,96.08
2017-10-26T04:17:26.316Z,95.98
2017-10-26T04:18:26.239Z,96.27
2017-10-26T04:19:26.161Z,96.17
2017-10-26T04:20:26.084Z,96.27
2017-10-26T04:21:26.001Z,96.08
2017-10-26T04:22:25.924Z,96.65
2017-10-26T04:23:25.861Z,95.79
2017-10-26T04:24:25.812Z,95.98
2017-10-26T04:25:25.727Z,96.08
2017-10-26T04:26:25.909Z,96.65
2017-10-26T04:27:25.535Z,96.27
2017-10-26T04:28:25.535Z,96.75
2017-10-26T04:29:25.853Z,96.27
2017-10-26T04:30:25.409Z,96.36
2017-10-26T04:31:25.214Z,96.27
2017-10-26T04:32:25.484Z,96.65
2017-10-26T04:33:25.056Z,96.36
2017-10-26T04:34:25.170Z,96.17
2017-10-26T04:35:24.980Z,95.89
2017-10-26T04:36:24.950Z,96.17
2017-10-26T04:37:24.900Z,96.41
2017-10-26T04:38:24.671Z,96.22
2017-10-26T04:39:24.612Z,95.98
2017-10-26T04:40:24.714Z,96.08
2017-10-26T04:41:24.516Z,96.22
2017-10-26T04:42:24.407Z,96.22
2017-10-26T04:43:24.280Z,96.03
2017-10-26T04:44:24.221Z,96.12
2017-10-26T04:45:24.121Z,96.03
2017-10-26T04:46:24.070Z,95.94
2017-10-26T04:47:24.031Z,95.94
2017-10-26T04:48:23.921Z,96.80
2017-10-26T04:49:23.839Z,96.60
2017-10-26T04:50:23.870Z,96.60
2017-10-26T04:51:23.766Z,96.51
2017-10-26T04:52:23.576Z,96.22
2017-10-26T04:53:23.502Z,96.22
2017-10-26T04:54:23.488Z,96.60
2017-10-26T04:55:23.358Z,96.60
2017-10-26T04:56:23.355Z,96.51
2017-10-26T04:57:23.385Z,96.80
2017-10-26T04:58:23.108Z,96.89
2017-10-26T04:59:23.620Z,96.70
2017-10-26T05:00:23.000Z,97.46
2017-10-26T05:01:22.905Z,96.80
2017-10-26T05:02:22.811Z,96.80
2017-10-26T05:03:22.711Z,96.80
2017-10-26T05:04:22.934Z,96.70
2017-10-26T05:05:22.634Z,96.70
2017-10-26T05:06:22.632Z,97.36
2017-10-26T05:07:22.563Z,97.08
2017-10-26T05:08:22.480Z,96.89
2017-10-26T05:09:22.234Z,97.08
2017-10-26T05:10:22.314Z,96.60
2017-10-26T05:11:22.145Z,97.36
2017-10-26T05:12:22.046Z,96.98
2017-10-26T05:13:22.061Z,96.51
2017-10-26T05:14:22.170Z,97.36
2017-10-26T05:15:21.876Z,97.56
2017-10-26T05:16:21.859Z,97.36
2017-10-26T05:17:21.689Z,97.56
2017-10-26T05:18:21.546Z,96.70
2017-10-26T05:19:21.541Z,97.17
2017-10-26T05:20:21.395Z,97.17
2017-10-26T05:21:21.302Z,96.60
2017-10-26T05:22:21.332Z,97.08
2017-10-26T05:23:21.206Z,97.17
2017-10-26T05:24:21.228Z,96.89
2017-10-26T05:25:21.114Z,96.98
2017-10-26T05:26:20.937Z,97.75
2017-10-26T05:27:20.908Z,97.36
2017-10-26T05:28:20.832Z,96.60
2017-10-26T05:29:20.760Z,97.65
2017-10-26T05:30:20.642Z,97.94
2017-10-26T05:31:20.654Z,97.75
2017-10-26T05:32:20.454Z,97.56
2017-10-26T05:33:20.545Z,98.03
2017-10-26T05:34:20.342Z,97.75
2017-10-26T05:35:20.225Z,97.65
2017-10-26T05:36:20.182Z,97.65
2017-10-26T05:37:20.089Z,97.84
2017-10-26T05:38:20.045Z,97.65
2017-10-26T05:39:20.040Z,98.03
2017-10-26T05:40:19.889Z,97.84
2017-10-26T05:41:19.796Z,97.56
2017-10-26T05:42:19.989Z,97.46
2017-10-26T05:43:19.569Z,98.32
2017-10-26T05:44:19.505Z,97.94
2017-10-26T05:45:19.424Z,98.22
2017-10-26T05:46:19.414Z,98.32
2017-10-26T05:47:19.321Z,98.51
2017-10-26T05:48:19.459Z,98.13
2017-10-26T05:49:19.193Z,98.41
2017-10-26T05:50:19.025Z,98.79
2017-10-26T05:51:19.042Z,98.70
2017-10-26T05:52:18.865Z,98.99
2017-10-26T05:53:19.051Z,99.08
2017-10-26T05:54:18.716Z,98.89
2017-10-26T05:55:18.689Z,98.99
2017-10-26T05:56:18.613Z,98.70
2017-10-26T05:57:18.791Z,98.89
2017-10-26T05:58:18.403Z,99.18
2017-10-26T05:59:18.378Z,99.27
2017-10-26T06:00:18.398Z,98.99
2017-10-26T06:01:18.190Z,98.70
2017-10-26T06:02:18.206Z,98.51
2017-10-26T06:03:18.003Z,98.22
2017-10-26T06:04:18.010Z,98.51
2017-10-26T06:05:17.860Z,98.22
2017-10-26T06:06:17.872Z,98.51
2017-10-26T06:07:17.699Z,98.32
2017-10-26T06:08:17.936Z,98.22
2017-10-26T06:09:17.629Z,98.22
2017-10-26T06:10:17.643Z,98.13
2017-10-26T06:11:17.472Z,98.85
2017-10-26T06:12:17.455Z,98.27
2017-10-26T06:13:17.329Z,98.32
2017-10-26T06:14:17.776Z,98.36
2017-10-26T06:15:17.066Z,98.08
2017-10-26T06:16:17.173Z,98.70
2017-10-26T06:17:17.087Z,98.75
2017-10-26T06:18:16.833Z,98.56
2017-10-26T06:19:16.898Z,99.04
2017-10-26T06:20:17.024Z,98.27
2017-10-26T06:21:16.827Z,98.36
2017-10-26T06:22:16.728Z,98.56
2017-10-26T06:23:16.700Z,98.27
2017-10-26T06:24:16.395Z,98.85
2017-10-26T06:25:16.287Z,98.65
2017-10-26T06:26:16.233Z,99.27
2017-10-26T06:27:16.213Z,98.75
2017-10-26T06:28:18.887Z,99.04
2017-10-26T06:29:16.147Z,98.85
2017-10-26T06:30:15.995Z,98.56
2017-10-26T06:31:16.227Z,98.36
2017-10-26T06:32:15.744Z,98.56
2017-10-26T06:33:15.777Z,98.36
2017-10-26T06:34:15.745Z,98.65
2017-10-26T06:35:15.549Z,98.56
2017-10-26T06:36:15.758Z,98.56
2017-10-26T06:37:15.378Z,97.80
2017-10-26T06:38:15.422Z,97.99
2017-10-26T06:39:15.379Z,97.80
2017-10-26T06:40:15.119Z,97.03
2017-10-26T06:41:15.162Z,97.61
2017-10-26T06:42:15.029Z,98.08
2017-10-26T06:43:14.903Z,97.99
2017-10-26T06:44:14.805Z,97.51
2017-10-26T06:45:14.797Z,97.80
2017-10-26T06:46:14.697Z,97.80
2017-10-26T06:47:14.574Z,97.89
2017-10-26T06:48:14.492Z,97.80
2017-10-26T06:49:14.428Z,98.27
2017-10-26T06:50:14.396Z,98.08
2017-10-26T06:51:14.329Z,97.80
2017-10-26T06:52:14.345Z,97.80
2017-10-26T06:53:14.141Z,97.80
2017-10-26T06:54:14.143Z,97.70
2017-10-26T06:55:13.960Z,97.80
2017-10-26T06:56:13.932Z,97.99
2017-10-26T06:57:13.848Z,97.51
2017-10-26T06:58:13.766Z,97.13
2017-10-26T06:59:13.656Z,98.27
2017-10-26T07:00:13.707Z,97.99
2017-10-26T07:01:13.485Z,97.03
2017-10-26T07:02:13.480Z,97.80
2017-10-26T07:03:13.392Z,97.22
2017-10-26T07:04:13.284Z,98.08
2017-10-26T07:05:13.164Z,97.13
2017-10-26T07:06:14.091Z,97.41
2017-10-26T07:07:14.018Z,97.94
2017-10-26T07:08:13.012Z,97.85
2017-10-26T07:09:12.884Z,98.22
2017-10-26T07:10:12.818Z,98.18
2017-10-26T07:11:12.717Z,97.85
2017-10-26T07:12:12.627Z,97.94
2017-10-26T07:13:12.993Z,97.80
2017-10-26T07:14:14.659Z,98.18
2017-10-26T07:15:13.948Z,98.70
2017-10-26T07:16:12.342Z,98.42
2017-10-26T07:17:12.247Z,98.32
2017-10-26T07:18:12.182Z,98.42
2017-10-26T07:19:12.164Z,98.61
2017-10-26T07:20:12.019Z,98.51
2017-10-26T07:21:11.931Z,97.66
2017-10-26T07:22:11.879Z,97.94
2017-10-26T07:23:11.880Z,97.66
2017-10-26T07:24:11.687Z,98.51
2017-10-26T07:25:11.635Z,98.22
2017-10-26T07:26:13.402Z,98.42
2017-10-26T07:27:13.413Z,98.22
2017-10-26T07:28:11.395Z,98.03
2017-10-26T07:29:11.307Z,97.85
2017-10-26T07:30:11.314Z,97.75
2017-10-26T07:31:11.226Z,98.22
2017-10-26T07:32:11.184Z,97.66
2017-10-26T07:33:12.935Z,97.85
2017-10-26T07:34:11.147Z,98.32
2017-10-26T07:35:10.873Z,97.85
2017-10-26T07:36:10.757Z,97.75
2017-10-26T07:37:10.694Z,98.32
2017-10-26T07:38:10.673Z,98.13
2017-10-26T07:39:10.556Z,97.94
2017-10-26T07:40:10.461Z,98.13
2017-10-26T07:41:10.377Z,98.03
2017-10-26T07:42:10.401Z,98.42
2017-10-26T07:43:10.240Z,98.22
2017-10-26T07:44:10.182Z,98.80
2017-10-26T07:45:10.261Z,99.27
2017-10-26T07:46:09.987Z,98.80
2017-10-26T07:47:09.988Z,98.99
2017-10-26T07:48:09.829Z,99.08
2017-10-26T07:49:09.750Z,99.27
2017-10-26T07:50:09.937Z,98.99
2017-10-26T07:51:09.599Z,98.80
2017-10-26T07:52:09.816Z,99.37
2017-10-26T07:53:09.634Z,99.18
2017-10-26T07:54:09.372Z,99.56
2017-10-26T07:55:09.332Z,99.27
2017-10-26T07:56:09.236Z,99.85
2017-10-26T07:57:09.139Z,99.99
2017-10-26T07:58:09.093Z,99.99
2017-10-26T07:59:09.033Z,99.99
2017-10-26T08:00:08.896Z,99.99
2017-10-26T08:01:08.886Z,99.99
2017-10-26T08:02:08.753Z,99.99
2017-10-26T08:03:08.672Z,99.99
2017-10-26T08:04:08.598Z,99.99
2017-10-26T08:05:08.578Z,99.99
2017-10-26T08:06:08.435Z,99.99
2017-10-26T08:07:08.537Z,99.99
2017-10-26T08:08:08.313Z,99.99
2017-10-26T08:09:08.202Z,99.99
2017-10-26T08:10:08.127Z,99.99
2017-10-26T08:11:08.104Z,99.99
2017-10-26T08:12:07.969Z,99.99
2017-10-26T08:13:07.948Z,99.99
2017-10-26T08:14:07.974Z,99.99
2017-10-26T08:15:07.737Z,99.99
2017-10-26T08:16:07.656Z,99.99
2017-10-26T08:17:07.643Z,99.99
2017-10-26T08:18:07.506Z,99.99
2017-10-26T08:19:08.426Z,99.99
2017-10-26T08:20:07.577Z,99.99
2017-10-26T08:21:07.271Z,99.99
2017-10-26T08:22:07.202Z,99.99
2017-10-26T08:23:07.165Z,99.99
2017-10-26T08:24:07.040Z,99.99
2017-10-26T08:25:06.964Z,99.99
2017-10-26T08:26:06.885Z,99.90
2017-10-26T08:27:06.807Z,99.99
2017-10-26T08:28:06.883Z,99.99
2017-10-26T08:29:06.654Z,99.99
2017-10-26T08:30:06.577Z,99.99
2017-10-26T08:31:06.501Z,99.99
2017-10-26T08:32:06.420Z,99.99
2017-10-26T08:33:06.352Z,99.99
2017-10-26T08:34:06.269Z,99.99
2017-10-26T08:35:06.190Z,99.99
2017-10-26T08:36:06.111Z,99.99
2017-10-26T08:37:06.036Z,99.99
2017-10-26T08:38:05.980Z,99.99
2017-10-26T08:39:05.891Z,99.99
2017-10-26T08:40:05.804Z,99.99
2017-10-26T08:41:05.728Z,99.99
2017-10-26T08:42:05.656Z,99.99
2017-10-26T08:43:05.575Z,99.99
2017-10-26T08:44:05.497Z,99.99
2017-10-26T08:45:05.420Z,99.99
2017-10-26T08:46:05.346Z,99.99
2017-10-26T08:47:05.269Z,99.99
2017-10-26T08:48:05.189Z,99.99
2017-10-26T08:49:05.111Z,99.99
2017-10-26T08:50:05.034Z,99.99
2017-10-26T08:51:04.958Z,99.99
2017-10-26T08:52:04.882Z,99.99
2017-10-26T08:53:04.802Z,99.99
2017-10-26T08:54:04.726Z,99.99
2017-10-26T08:55:04.648Z,99.99
2017-10-26T08:56:04.588Z,99.80
2017-10-26T08:57:04.497Z,99.99
2017-10-26T08:58:04.419Z,99.99
2017-10-26T08:59:04.343Z,99.99
2017-10-26T09:00:04.263Z,99.99
2017-10-26T09:01:04.186Z,99.99
2017-10-26T09:02:04.111Z,99.99
2017-10-26T09:03:04.034Z,99.99
2017-10-26T09:04:03.956Z,99.99
2017-10-26T09:05:03.879Z,99.99
2017-10-26T09:06:03.802Z,99.99
2017-10-26T09:07:03.725Z,99.90
2017-10-26T09:08:03.652Z,99.61
2017-10-26T09:09:03.573Z,99.66
2017-10-26T09:10:03.495Z,99.85
2017-10-26T09:11:03.418Z,99.85
2017-10-26T09:12:03.340Z,99.85
2017-10-26T09:13:03.264Z,99.85
2017-10-26T09:14:03.186Z,99.85
2017-10-26T09:15:03.109Z,99.85
2017-10-26T09:16:03.034Z,99.66
2017-10-26T09:17:02.956Z,99.66
2017-10-26T09:18:02.879Z,99.28
2017-10-26T09:19:02.803Z,99.18
2017-10-26T09:20:02.744Z,99.08
2017-10-26T09:21:02.649Z,99.18
2017-10-26T09:22:02.572Z,98.90
2017-10-26T09:23:02.496Z,99.08
2017-10-26T09:24:02.418Z,98.42
2017-10-26T09:25:02.341Z,98.23
2017-10-26T09:26:02.267Z,98.52
2017-10-26T09:27:02.249Z,98.32
2017-10-26T09:28:02.113Z,98.42
2017-10-26T09:29:02.036Z,98.71
2017-10-26T09:30:01.958Z,98.71
2017-10-26T09:31:01.883Z,98.42
2017-10-26T09:32:01.804Z,98.52
2017-10-26T09:33:01.729Z,98.03
2017-10-26T09:34:01.654Z,98.03
2017-10-26T09:35:01.576Z,97.85
2017-10-26T09:36:01.515Z,98.03
2017-10-26T09:37:01.421Z,98.03
2017-10-26T09:38:01.344Z,98.42
2017-10-26T09:39:01.270Z,98.52
2017-10-26T09:40:01.192Z,97.94
2017-10-26T09:41:01.115Z,97.75
2017-10-26T09:42:01.039Z,97.85
2017-10-26T09:43:00.966Z,97.94
2017-10-26T09:44:00.905Z,97.75
2017-10-26T09:45:00.867Z,97.66
2017-10-26T09:46:00.736Z,97.75
2017-10-26T09:47:00.657Z,97.94
2017-10-26T09:48:00.579Z,98.18
2017-10-26T09:49:00.503Z,98.28
2017-10-26T09:50:00.426Z,97.80
2017-10-26T09:51:00.354Z,96.94
2017-10-26T09:52:00.272Z,97.23
2017-10-26T09:53:00.197Z,96.94
2017-10-26T09:54:00.121Z,97.71
2017-10-26T09:55:00.043Z,97.03
2017-10-26T09:55:59.965Z,97.71
2017-10-26T09:56:59.889Z,97.80
2017-10-26T09:57:59.815Z,97.61
2017-10-26T09:58:59.737Z,97.61
2017-10-26T09:59:59.660Z,98.18
2017-10-26T10:00:59.585Z,97.80
2017-10-26T10:01:59.508Z,96.94
2017-10-26T10:02:59.433Z,97.13
2017-10-26T10:03:59.354Z,96.94
2017-10-26T10:04:59.280Z,98.47
2017-10-26T10:05:59.204Z,98.08
2017-10-26T10:06:59.129Z,98.08
2017-10-26T10:07:59.067Z,97.61
2017-10-26T10:08:58.974Z,97.71
2017-10-26T10:09:58.907Z,97.42
2017-10-26T10:10:58.821Z,97.99
2017-10-26T10:11:58.787Z,97.99
2017-10-26T10:12:58.669Z,97.99
2017-10-26T10:13:58.594Z,97.89
2017-10-26T10:14:58.515Z,98.18
2017-10-26T10:15:58.442Z,98.18
2017-10-26T10:16:58.419Z,97.52
2017-10-26T10:17:58.287Z,97.71
2017-10-26T10:18:58.210Z,97.80
2017-10-26T10:19:58.134Z,97.42
2017-10-26T10:20:58.060Z,97.42
2017-10-26T10:21:57.982Z,97.80
2017-10-26T10:22:57.907Z,97.42
2017-10-26T10:23:57.829Z,97.23
2017-10-26T10:24:57.753Z,97.18
2017-10-26T10:25:57.678Z,97.56
2017-10-26T10:26:57.599Z,96.89
2017-10-26T10:27:57.522Z,96.89
2017-10-26T10:28:57.448Z,96.89
2017-10-26T10:29:57.382Z,96.61
2017-10-26T10:30:57.296Z,97.08
2017-10-26T10:31:57.224Z,96.61
2017-10-26T10:32:57.145Z,96.70
2017-10-26T10:33:57.068Z,96.61
2017-10-26T10:34:56.993Z,96.13
2017-10-26T10:35:56.916Z,96.13
2017-10-26T10:36:56.840Z,96.22
2017-10-26T10:37:56.764Z,96.42
2017-10-26T10:38:56.690Z,96.80
2017-10-26T10:39:56.611Z,96.89
2017-10-26T10:40:56.537Z,96.22
2017-10-26T10:41:56.461Z,96.61
2017-10-26T10:42:56.386Z,96.70
2017-10-26T10:43:56.309Z,96.80
2017-10-26T10:44:56.233Z,96.03
2017-10-26T10:45:56.157Z,95.75
2017-10-26T10:46:56.082Z,96.13
2017-10-26T10:47:56.072Z,95.84
2017-10-26T10:48:55.969Z,95.84
2017-10-26T10:49:55.945Z,95.75
2017-10-26T10:50:55.803Z,95.79
2017-10-26T10:51:55.762Z,95.98
2017-10-26T10:52:55.627Z,96.13
2017-10-26T10:53:55.594Z,96.08
2017-10-26T10:54:55.476Z,96.08
2017-10-26T10:55:55.515Z,95.89
2017-10-26T10:56:55.334Z,95.98
2017-10-26T10:57:55.250Z,95.61
2017-10-26T10:58:55.205Z,95.61
2017-10-26T10:59:55.098Z,95.61
2017-10-26T11:00:55.093Z,95.61
2017-10-26T11:01:54.948Z,95.51
2017-10-26T11:02:55.041Z,95.79
2017-10-26T11:03:54.860Z,95.41
2017-10-26T11:04:54.969Z,95.79
2017-10-26T11:05:54.779Z,95.61
2017-10-26T11:06:54.576Z,95.79
2017-10-26T11:07:54.552Z,95.32
2017-10-26T11:08:54.486Z,95.51
2017-10-26T11:09:54.370Z,95.12
2017-10-26T11:10:54.302Z,94.93
2017-10-26T11:11:54.216Z,95.03
2017-10-26T11:12:54.290Z,94.26
2017-10-26T11:13:54.068Z,94.12
2017-10-26T11:14:53.977Z,94.89
2017-10-26T11:15:54.003Z,94.70
2017-10-26T11:16:53.825Z,94.70
2017-10-26T11:17:53.806Z,94.84
2017-10-26T11:18:53.739Z,94.41
2017-10-26T11:19:53.595Z,94.70
2017-10-26T11:20:53.535Z,94.89
2017-10-26T11:21:53.599Z,94.89
2017-10-26T11:22:53.373Z,95.07
2017-10-26T11:23:53.290Z,94.89
2017-10-26T11:24:53.249Z,95.07
2017-10-26T11:25:53.147Z,94.50
2017-10-26T11:26:53.077Z,94.79
2017-10-26T11:27:53.068Z,94.79
2017-10-26T11:28:52.982Z,94.50
2017-10-26T11:29:52.846Z,94.70
2017-10-26T11:30:52.807Z,94.46
2017-10-26T11:31:52.696Z,94.50
2017-10-26T11:32:52.710Z,94.60
2017-10-26T11:33:52.589Z,94.26
2017-10-26T11:34:52.472Z,94.93
2017-10-26T11:35:52.422Z,94.55
2017-10-26T11:36:52.364Z,94.31
2017-10-26T11:37:52.311Z,93.98
2017-10-26T11:38:52.224Z,94.84
2017-10-26T11:39:52.122Z,94.65
2017-10-26T11:40:52.021Z,94.74
2017-10-26T11:41:51.941Z,94.36
2017-10-26T11:42:51.869Z,94.93
2017-10-26T11:43:51.810Z,95.22
2017-10-26T11:44:51.714Z,94.93
2017-10-26T11:45:51.644Z,95.03
2017-10-26T11:46:51.578Z,95.03
2017-10-26T11:47:51.563Z,95.07
2017-10-26T11:48:51.415Z,95.07
2017-10-26T11:49:51.366Z,94.60
2017-10-26T11:50:51.270Z,94.70
2017-10-26T11:51:51.188Z,94.41
2017-10-26T11:52:51.182Z,94.41
2017-10-26T11:53:51.119Z,93.64
2017-10-26T11:54:50.988Z,94.41
2017-10-26T11:55:50.899Z,94.50
2017-10-26T11:56:50.818Z,94.31
2017-10-26T11:57:50.827Z,94.50
2017-10-26T11:58:50.710Z,94.31
2017-10-26T11:59:50.612Z,93.93
2017-10-26T12:00:50.526Z,93.59
2017-10-26T12:01:50.511Z,91.44
2017-10-26T12:02:50.430Z,91.34
2017-10-26T12:03:50.339Z,91.49
2017-10-26T12:04:50.269Z,90.77
2017-10-26T12:05:50.192Z,90.77
2017-10-26T12:06:50.066Z,90.86
2017-10-26T12:07:50.059Z,91.15
2017-10-26T12:08:50.145Z,90.77
2017-10-26T12:09:49.844Z,90.29
2017-10-26T12:10:49.974Z,90.19
2017-10-26T12:11:49.705Z,91.44
2017-10-26T12:12:49.680Z,91.05
2017-10-26T12:13:49.794Z,91.05
2017-10-26T12:14:49.476Z,90.77
2017-10-26T12:15:49.400Z,91.15
2017-10-26T12:16:49.345Z,90.62
2017-10-26T12:17:49.353Z,90.33
2017-10-26T12:18:49.186Z,90.53
2017-10-26T12:19:49.131Z,90.23
2017-10-26T12:20:49.128Z,89.14
2017-10-26T12:21:49.125Z,90.19
2017-10-26T12:22:48.895Z,89.81
2017-10-26T12:23:48.883Z,90.19
2017-10-26T12:24:48.864Z,90.00
2017-10-26T12:25:48.741Z,89.72
2017-10-26T12:26:48.653Z,90.77
2017-10-26T12:27:48.874Z,90.39
2017-10-26T12:28:48.460Z,90.19
2017-10-26T12:29:48.577Z,89.90
2017-10-26T12:30:48.390Z,90.39
2017-10-26T12:31:48.422Z,90.67
2017-10-26T12:32:48.194Z,91.34
2017-10-26T12:33:48.107Z,90.39
2017-10-26T12:34:48.002Z,90.39
2017-10-26T12:35:48.531Z,89.81
2017-10-26T12:36:47.894Z,89.76
2017-10-26T12:37:47.800Z,89.18
2017-10-26T12:38:47.709Z,88.23
2017-10-26T12:39:47.663Z,88.23
2017-10-26T12:40:47.930Z,88.70
2017-10-26T12:41:48.030Z,89.37
2017-10-26T12:42:47.434Z,89.09
2017-10-26T12:43:47.438Z,89.43
2017-10-26T12:44:47.363Z,89.23
2017-10-26T12:45:47.354Z,90.00
2017-10-26T12:46:47.250Z,90.48
2017-10-26T12:47:47.048Z,90.39
2017-10-26T12:48:47.164Z,90.58
2017-10-26T12:49:47.068Z,90.58
2017-10-26T12:50:46.994Z,90.58
2017-10-26T12:51:46.981Z,90.48